sensor_id;sensor_type;location;lat;lon;timestamp;P1;durP1;ratioP1;P2;durP2;ratioP2
37787;SDS011;23627;53.302;-6.362;2024-03-25T00:01:32;0.63;;;0.20;;
37787;SDS011;23627;53.302;-6.362;2024-03-25T00:03:59;0.40;;;0.10;;
37787;SDS011;23627;53.302;-6.362;2024-03-25T00:06:24;1.15;;;0.20;;
37787;SDS011;23627;53.302;-6.362;2024-03-25T00:08:51;0.20;;;0.10;;
37787;SDS011;23627;53.302;-6.362;2024-03-25T00:11:17;0.40;;;0.10;;
37787;SDS011;23627;53.302;-6.362;2024-03-25T00:13:42;0.43;;;0.10;;
37787;SDS011;23627;53.302;-6.362;2024-03-25T00:16:08;0.25;;;0.20;;
37787;SDS011;23627;53.302;-6.362;2024-03-25T00:18:34;0.43;;;0.20;;
37787;SDS011;23627;53.302;-6.362;2024-03-25T00:21:00;0.20;;;0.10;;
37787;SDS011;23627;53.302;-6.362;2024-03-25T00:23:25;0.35;;;0.10;;
37787;SDS011;23627;53.302;-6.362;2024-03-25T00:25:51;0.28;;;0.10;;
37787;SDS011;23627;53.302;-6.362;2024-03-25T00:28:17;0.25;;;0.10;;
37787;SDS011;23627;53.302;-6.362;2024-03-25T00:30:44;0.10;;;0.10;;
37787;SDS011;23627;53.302;-6.362;2024-03-25T00:33:10;0.35;;;0.10;;
37787;SDS011;23627;53.302;-6.362;2024-03-25T00:35:36;0.43;;;0.20;;
37787;SDS011;23627;53.302;-6.362;2024-03-25T00:38:02;0.30;;;0.10;;
37787;SDS011;23627;53.302;-6.362;2024-03-25T00:40:29;0.28;;;0.10;;
37787;SDS011;23627;53.302;-6.362;2024-03-25T00:42:55;0.25;;;0.10;;
37787;SDS011;23627;53.302;-6.362;2024-03-25T00:45:23;0.20;;;0.13;;
37787;SDS011;23627;53.302;-6.362;2024-03-25T00:47:55;0.30;;;0.20;;
37787;SDS011;23627;53.302;-6.362;2024-03-25T00:50:24;0.10;;;0.10;;
37787;SDS011;23627;53.302;-6.362;2024-03-25T00:52:50;0.25;;;0.10;;
37787;SDS011;23627;53.302;-6.362;2024-03-25T00:55:17;0.30;;;0.10;;
37787;SDS011;23627;53.302;-6.362;2024-03-25T00:57:42;0.10;;;0.10;;
37787;SDS011;23627;53.302;-6.362;2024-03-25T01:00:09;0.20;;;0.00;;
37787;SDS011;23627;53.302;-6.362;2024-03-25T01:02:35;0.10;;;0.00;;
37787;SDS011;23627;53.302;-6.362;2024-03-25T01:05:01;0.15;;;0.10;;
37787;SDS011;23627;53.302;-6.362;2024-03-25T01:07:27;0.30;;;0.10;;
37787;SDS011;23627;53.302;-6.362;2024-03-25T01:09:53;0.17;;;0.10;;
37787;SDS011;23627;53.302;-6.362;2024-03-25T01:12:19;0.20;;;0.10;;
37787;SDS011;23627;53.302;-6.362;2024-03-25T01:14:45;0.35;;;0.10;;
37787;SDS011;23627;53.302;-6.362;2024-03-25T01:17:13;0.35;;;0.10;;
37787;SDS011;23627;53.302;-6.362;2024-03-25T01:19:39;0.20;;;0.08;;
37787;SDS011;23627;53.302;-6.362;2024-03-25T01:22:05;0.80;;;0.00;;
37787;SDS011;23627;53.302;-6.362;2024-03-25T01:24:31;0.40;;;0.03;;
37787;SDS011;23627;53.302;-6.362;2024-03-25T01:26:57;0.20;;;0.10;;
37787;SDS011;23627;53.302;-6.362;2024-03-25T01:29:23;0.10;;;0.00;;
37787;SDS011;23627;53.302;-6.362;2024-03-25T01:31:49;0.13;;;0.03;;
37787;SDS011;23627;53.302;-6.362;2024-03-25T01:34:15;0.22;;;0.10;;
37787;SDS011;23627;53.302;-6.362;2024-03-25T01:36:41;0.20;;;0.10;;
37787;SDS011;23627;53.302;-6.362;2024-03-25T01:39:17;0.20;;;0.03;;
37787;SDS011;23627;53.302;-6.362;2024-03-25T01:41:46;0.20;;;0.10;;
37787;SDS011;23627;53.302;-6.362;2024-03-25T01:44:12;0.08;;;0.00;;
37787;SDS011;23627;53.302;-6.362;2024-03-25T01:46:37;0.20;;;0.00;;
37787;SDS011;23627;53.302;-6.362;2024-03-25T01:49:04;0.10;;;0.00;;
37787;SDS011;23627;53.302;-6.362;2024-03-25T01:51:31;0.30;;;0.10;;
37787;SDS011;23627;53.302;-6.362;2024-03-25T01:54:00;0.10;;;0.00;;
37787;SDS011;23627;53.302;-6.362;2024-03-25T01:56:30;0.20;;;0.10;;
37787;SDS011;23627;53.302;-6.362;2024-03-25T01:58:58;0.08;;;0.00;;
37787;SDS011;23627;53.302;-6.362;2024-03-25T02:01:25;0.10;;;0.00;;
37787;SDS011;23627;53.302;-6.362;2024-03-25T02:03:52;0.10;;;0.00;;
37787;SDS011;23627;53.302;-6.362;2024-03-25T02:06:24;0.08;;;0.00;;
37787;SDS011;23627;53.302;-6.362;2024-03-25T02:08:53;0.00;;;0.00;;
37787;SDS011;23627;53.302;-6.362;2024-03-25T02:11:22;0.10;;;0.00;;
37787;SDS011;23627;53.302;-6.362;2024-03-25T02:13:49;0.10;;;0.00;;
37787;SDS011;23627;53.302;-6.362;2024-03-25T02:16:16;0.40;;;0.10;;
37787;SDS011;23627;53.302;-6.362;2024-03-25T02:18:43;0.20;;;0.05;;
37787;SDS011;23627;53.302;-6.362;2024-03-25T02:21:09;0.22;;;0.08;;
37787;SDS011;23627;53.302;-6.362;2024-03-25T02:23:36;0.15;;;0.00;;
37787;SDS011;23627;53.302;-6.362;2024-03-25T02:26:07;0.30;;;0.00;;
37787;SDS011;23627;53.302;-6.362;2024-03-25T02:28:33;0.00;;;0.00;;
37787;SDS011;23627;53.302;-6.362;2024-03-25T02:30:58;0.13;;;0.00;;
37787;SDS011;23627;53.302;-6.362;2024-03-25T02:33:24;0.10;;;0.10;;
37787;SDS011;23627;53.302;-6.362;2024-03-25T02:35:50;0.17;;;0.00;;
37787;SDS011;23627;53.302;-6.362;2024-03-25T02:38:16;0.05;;;0.00;;
37787;SDS011;23627;53.302;-6.362;2024-03-25T02:40:44;0.20;;;0.00;;
37787;SDS011;23627;53.302;-6.362;2024-03-25T02:43:10;0.10;;;0.00;;
37787;SDS011;23627;53.302;-6.362;2024-03-25T02:45:36;0.28;;;0.10;;
37787;SDS011;23627;53.302;-6.362;2024-03-25T02:48:02;0.32;;;0.10;;
37787;SDS011;23627;53.302;-6.362;2024-03-25T02:50:29;0.10;;;0.10;;
37787;SDS011;23627;53.302;-6.362;2024-03-25T02:52:54;0.20;;;0.05;;
37787;SDS011;23627;53.302;-6.362;2024-03-25T02:55:20;0.00;;;0.00;;
37787;SDS011;23627;53.302;-6.362;2024-03-25T02:57:46;0.63;;;0.10;;
37787;SDS011;23627;53.302;-6.362;2024-03-25T03:00:12;0.22;;;0.00;;
37787;SDS011;23627;53.302;-6.362;2024-03-25T03:02:38;0.00;;;0.00;;
37787;SDS011;23627;53.302;-6.362;2024-03-25T03:05:05;0.20;;;0.00;;
37787;SDS011;23627;53.302;-6.362;2024-03-25T03:07:30;0.10;;;0.00;;
37787;SDS011;23627;53.302;-6.362;2024-03-25T03:09:56;0.70;;;0.10;;
37787;SDS011;23627;53.302;-6.362;2024-03-25T03:12:22;0.30;;;0.03;;
37787;SDS011;23627;53.302;-6.362;2024-03-25T03:14:48;0.00;;;0.00;;
37787;SDS011;23627;53.302;-6.362;2024-03-25T03:17:14;0.10;;;0.00;;
37787;SDS011;23627;53.302;-6.362;2024-03-25T03:19:40;0.20;;;0.10;;
37787;SDS011;23627;53.302;-6.362;2024-03-25T03:22:06;0.20;;;0.10;;
37787;SDS011;23627;53.302;-6.362;2024-03-25T03:24:31;0.28;;;0.05;;
37787;SDS011;23627;53.302;-6.362;2024-03-25T03:26:57;0.15;;;0.10;;
37787;SDS011;23627;53.302;-6.362;2024-03-25T03:29:23;0.10;;;0.00;;
37787;SDS011;23627;53.302;-6.362;2024-03-25T03:31:49;0.10;;;0.00;;
37787;SDS011;23627;53.302;-6.362;2024-03-25T03:34:15;0.20;;;0.00;;
37787;SDS011;23627;53.302;-6.362;2024-03-25T03:36:41;0.10;;;0.00;;
37787;SDS011;23627;53.302;-6.362;2024-03-25T03:39:06;0.60;;;0.00;;
37787;SDS011;23627;53.302;-6.362;2024-03-25T03:41:34;0.90;;;0.00;;
37787;SDS011;23627;53.302;-6.362;2024-03-25T03:44:01;0.10;;;0.00;;
37787;SDS011;23627;53.302;-6.362;2024-03-25T03:46:27;0.10;;;0.00;;
37787;SDS011;23627;53.302;-6.362;2024-03-25T03:48:55;0.63;;;0.10;;
37787;SDS011;23627;53.302;-6.362;2024-03-25T03:51:21;0.68;;;0.00;;
37787;SDS011;23627;53.302;-6.362;2024-03-25T03:53:47;0.00;;;0.00;;
37787;SDS011;23627;53.302;-6.362;2024-03-25T03:56:13;0.05;;;0.00;;
37787;SDS011;23627;53.302;-6.362;2024-03-25T03:58:39;0.00;;;0.00;;
37787;SDS011;23627;53.302;-6.362;2024-03-25T04:01:05;0.05;;;0.00;;
37787;SDS011;23627;53.302;-6.362;2024-03-25T04:03:40;0.00;;;0.00;;
37787;SDS011;23627;53.302;-6.362;2024-03-25T04:06:10;0.00;;;0.00;;
37787;SDS011;23627;53.302;-6.362;2024-03-25T04:08:37;0.80;;;0.10;;
37787;SDS011;23627;53.302;-6.362;2024-03-25T04:11:04;0.63;;;0.00;;
37787;SDS011;23627;53.302;-6.362;2024-03-25T04:13:31;0.25;;;0.05;;
37787;SDS011;23627;53.302;-6.362;2024-03-25T04:16:00;0.10;;;0.00;;
37787;SDS011;23627;53.302;-6.362;2024-03-25T04:18:28;0.08;;;0.00;;
37787;SDS011;23627;53.302;-6.362;2024-03-25T04:20:53;0.00;;;0.00;;
37787;SDS011;23627;53.302;-6.362;2024-03-25T04:23:19;0.10;;;0.00;;
37787;SDS011;23627;53.302;-6.362;2024-03-25T04:25:45;0.05;;;0.00;;
37787;SDS011;23627;53.302;-6.362;2024-03-25T04:28:11;0.13;;;0.00;;
37787;SDS011;23627;53.302;-6.362;2024-03-25T04:30:37;0.20;;;0.10;;
37787;SDS011;23627;53.302;-6.362;2024-03-25T04:33:02;0.52;;;0.00;;
37787;SDS011;23627;53.302;-6.362;2024-03-25T04:35:29;0.20;;;0.00;;
37787;SDS011;23627;53.302;-6.362;2024-03-25T04:37:55;0.10;;;0.00;;
37787;SDS011;23627;53.302;-6.362;2024-03-25T04:40:23;0.50;;;0.00;;
37787;SDS011;23627;53.302;-6.362;2024-03-25T04:42:51;0.08;;;0.00;;
37787;SDS011;23627;53.302;-6.362;2024-03-25T04:45:17;1.23;;;0.00;;
37787;SDS011;23627;53.302;-6.362;2024-03-25T04:47:46;0.17;;;0.00;;
37787;SDS011;23627;53.302;-6.362;2024-03-25T04:50:12;0.32;;;0.10;;
37787;SDS011;23627;53.302;-6.362;2024-03-25T04:52:41;0.43;;;0.08;;
37787;SDS011;23627;53.302;-6.362;2024-03-25T04:55:08;0.82;;;0.10;;
37787;SDS011;23627;53.302;-6.362;2024-03-25T04:57:33;0.47;;;0.10;;
37787;SDS011;23627;53.302;-6.362;2024-03-25T04:59:59;0.32;;;0.00;;
37787;SDS011;23627;53.302;-6.362;2024-03-25T05:02:25;0.32;;;0.05;;
37787;SDS011;23627;53.302;-6.362;2024-03-25T05:04:51;0.63;;;0.10;;
37787;SDS011;23627;53.302;-6.362;2024-03-25T05:07:17;0.80;;;0.10;;
37787;SDS011;23627;53.302;-6.362;2024-03-25T05:09:43;1.95;;;0.15;;
37787;SDS011;23627;53.302;-6.362;2024-03-25T05:12:09;1.08;;;0.10;;
37787;SDS011;23627;53.302;-6.362;2024-03-25T05:14:35;0.15;;;0.03;;
37787;SDS011;23627;53.302;-6.362;2024-03-25T05:17:04;0.30;;;0.10;;
37787;SDS011;23627;53.302;-6.362;2024-03-25T05:19:33;0.40;;;0.20;;
37787;SDS011;23627;53.302;-6.362;2024-03-25T05:21:59;0.43;;;0.10;;
37787;SDS011;23627;53.302;-6.362;2024-03-25T05:24:25;0.82;;;0.30;;
37787;SDS011;23627;53.302;-6.362;2024-03-25T05:26:53;0.60;;;0.10;;
37787;SDS011;23627;53.302;-6.362;2024-03-25T05:29:19;0.65;;;0.20;;
37787;SDS011;23627;53.302;-6.362;2024-03-25T05:31:55;1.05;;;0.20;;
37787;SDS011;23627;53.302;-6.362;2024-03-25T05:34:29;1.15;;;0.20;;
37787;SDS011;23627;53.302;-6.362;2024-03-25T05:36:57;0.98;;;0.10;;
37787;SDS011;23627;53.302;-6.362;2024-03-25T05:39:26;1.67;;;0.35;;
37787;SDS011;23627;53.302;-6.362;2024-03-25T05:41:52;1.88;;;0.30;;
37787;SDS011;23627;53.302;-6.362;2024-03-25T05:44:18;2.33;;;0.20;;
37787;SDS011;23627;53.302;-6.362;2024-03-25T05:46:45;0.90;;;0.17;;
37787;SDS011;23627;53.302;-6.362;2024-03-25T05:49:14;0.68;;;0.10;;
37787;SDS011;23627;53.302;-6.362;2024-03-25T05:51:40;1.60;;;0.20;;
37787;SDS011;23627;53.302;-6.362;2024-03-25T05:54:06;0.95;;;0.30;;
37787;SDS011;23627;53.302;-6.362;2024-03-25T05:56:32;3.00;;;0.20;;
37787;SDS011;23627;53.302;-6.362;2024-03-25T05:58:59;2.35;;;0.30;;
37787;SDS011;23627;53.302;-6.362;2024-03-25T06:01:26;2.50;;;0.40;;
37787;SDS011;23627;53.302;-6.362;2024-03-25T06:03:53;1.02;;;0.30;;
37787;SDS011;23627;53.302;-6.362;2024-03-25T06:06:19;3.35;;;0.50;;
37787;SDS011;23627;53.302;-6.362;2024-03-25T06:08:45;3.05;;;0.57;;
37787;SDS011;23627;53.302;-6.362;2024-03-25T06:11:11;2.15;;;0.40;;
37787;SDS011;23627;53.302;-6.362;2024-03-25T06:13:48;3.70;;;0.50;;
37787;SDS011;23627;53.302;-6.362;2024-03-25T06:16:14;2.72;;;0.32;;
37787;SDS011;23627;53.302;-6.362;2024-03-25T06:18:40;3.70;;;0.40;;
37787;SDS011;23627;53.302;-6.362;2024-03-25T06:21:07;3.47;;;0.60;;
37787;SDS011;23627;53.302;-6.362;2024-03-25T06:23:35;2.75;;;0.47;;
37787;SDS011;23627;53.302;-6.362;2024-03-25T06:26:05;2.63;;;0.50;;
37787;SDS011;23627;53.302;-6.362;2024-03-25T06:28:31;4.40;;;0.68;;
37787;SDS011;23627;53.302;-6.362;2024-03-25T06:31:00;2.38;;;0.35;;
37787;SDS011;23627;53.302;-6.362;2024-03-25T06:33:45;2.47;;;0.50;;
37787;SDS011;23627;53.302;-6.362;2024-03-25T06:36:32;3.15;;;0.77;;
37787;SDS011;23627;53.302;-6.362;2024-03-25T06:39:04;3.75;;;0.43;;
37787;SDS011;23627;53.302;-6.362;2024-03-25T06:41:30;3.13;;;0.40;;
37787;SDS011;23627;53.302;-6.362;2024-03-25T06:43:55;1.80;;;0.38;;
37787;SDS011;23627;53.302;-6.362;2024-03-25T06:46:21;3.17;;;0.43;;
37787;SDS011;23627;53.302;-6.362;2024-03-25T06:48:48;2.83;;;0.40;;
37787;SDS011;23627;53.302;-6.362;2024-03-25T06:51:14;3.13;;;0.43;;
37787;SDS011;23627;53.302;-6.362;2024-03-25T06:53:40;3.53;;;0.93;;
37787;SDS011;23627;53.302;-6.362;2024-03-25T06:56:12;5.90;;;0.50;;
37787;SDS011;23627;53.302;-6.362;2024-03-25T06:58:41;2.67;;;0.52;;
37787;SDS011;23627;53.302;-6.362;2024-03-25T07:01:09;2.25;;;0.40;;
37787;SDS011;23627;53.302;-6.362;2024-03-25T07:03:37;2.15;;;0.30;;
37787;SDS011;23627;53.302;-6.362;2024-03-25T07:06:04;1.80;;;0.40;;
37787;SDS011;23627;53.302;-6.362;2024-03-25T07:11:55;2.67;;;0.40;;
37787;SDS011;23627;53.302;-6.362;2024-03-25T07:14:21;4.03;;;0.50;;
37787;SDS011;23627;53.302;-6.362;2024-03-25T07:16:47;3.72;;;0.43;;
37787;SDS011;23627;53.302;-6.362;2024-03-25T07:19:13;1.88;;;0.40;;
37787;SDS011;23627;53.302;-6.362;2024-03-25T07:21:38;2.63;;;0.40;;
37787;SDS011;23627;53.302;-6.362;2024-03-25T07:24:04;2.13;;;0.40;;
37787;SDS011;23627;53.302;-6.362;2024-03-25T07:26:30;1.33;;;0.28;;
37787;SDS011;23627;53.302;-6.362;2024-03-25T07:28:59;2.05;;;0.40;;
37787;SDS011;23627;53.302;-6.362;2024-03-25T07:31:25;2.97;;;0.20;;
37787;SDS011;23627;53.302;-6.362;2024-03-25T07:37:15;2.28;;;0.40;;
37787;SDS011;23627;53.302;-6.362;2024-03-25T07:39:42;2.25;;;0.30;;
37787;SDS011;23627;53.302;-6.362;2024-03-25T07:42:10;1.92;;;0.28;;
37787;SDS011;23627;53.302;-6.362;2024-03-25T07:44:39;2.10;;;0.38;;
37787;SDS011;23627;53.302;-6.362;2024-03-25T07:47:05;2.15;;;0.30;;
37787;SDS011;23627;53.302;-6.362;2024-03-25T07:49:33;1.98;;;0.30;;
37787;SDS011;23627;53.302;-6.362;2024-03-25T07:52:00;1.00;;;0.25;;
37787;SDS011;23627;53.302;-6.362;2024-03-25T07:54:28;1.55;;;0.50;;
37787;SDS011;23627;53.302;-6.362;2024-03-25T07:56:56;2.28;;;0.28;;
37787;SDS011;23627;53.302;-6.362;2024-03-25T07:59:22;2.05;;;0.60;;
37787;SDS011;23627;53.302;-6.362;2024-03-25T08:01:51;1.95;;;0.28;;
37787;SDS011;23627;53.302;-6.362;2024-03-25T08:04:16;1.90;;;0.50;;
37787;SDS011;23627;53.302;-6.362;2024-03-25T08:06:43;2.22;;;0.40;;
37787;SDS011;23627;53.302;-6.362;2024-03-25T08:09:09;2.42;;;0.40;;
37787;SDS011;23627;53.302;-6.362;2024-03-25T08:11:35;2.53;;;0.30;;
37787;SDS011;23627;53.302;-6.362;2024-03-25T08:14:00;1.48;;;0.40;;
37787;SDS011;23627;53.302;-6.362;2024-03-25T08:16:29;3.45;;;0.40;;
37787;SDS011;23627;53.302;-6.362;2024-03-25T08:18:55;2.60;;;0.50;;
37787;SDS011;23627;53.302;-6.362;2024-03-25T08:21:22;2.30;;;0.50;;
37787;SDS011;23627;53.302;-6.362;2024-03-25T08:23:48;3.15;;;0.40;;
37787;SDS011;23627;53.302;-6.362;2024-03-25T08:26:16;5.22;;;0.50;;
37787;SDS011;23627;53.302;-6.362;2024-03-25T08:28:42;3.83;;;0.60;;
37787;SDS011;23627;53.302;-6.362;2024-03-25T08:31:08;1.90;;;0.40;;
37787;SDS011;23627;53.302;-6.362;2024-03-25T08:33:34;2.50;;;0.50;;
37787;SDS011;23627;53.302;-6.362;2024-03-25T08:35:59;4.50;;;0.60;;
37787;SDS011;23627;53.302;-6.362;2024-03-25T08:38:28;4.70;;;0.50;;
37787;SDS011;23627;53.302;-6.362;2024-03-25T08:40:53;3.97;;;0.63;;
37787;SDS011;23627;53.302;-6.362;2024-03-25T08:43:19;2.38;;;0.60;;
37787;SDS011;23627;53.302;-6.362;2024-03-25T08:45:45;4.07;;;0.50;;
37787;SDS011;23627;53.302;-6.362;2024-03-25T08:48:12;3.20;;;0.50;;
37787;SDS011;23627;53.302;-6.362;2024-03-25T08:50:37;1.55;;;0.40;;
37787;SDS011;23627;53.302;-6.362;2024-03-25T08:53:04;2.63;;;0.40;;
37787;SDS011;23627;53.302;-6.362;2024-03-25T08:55:30;3.92;;;0.45;;
37787;SDS011;23627;53.302;-6.362;2024-03-25T08:57:59;1.85;;;0.30;;
37787;SDS011;23627;53.302;-6.362;2024-03-25T09:00:26;1.60;;;0.40;;
37787;SDS011;23627;53.302;-6.362;2024-03-25T09:02:52;3.25;;;0.98;;
37787;SDS011;23627;53.302;-6.362;2024-03-25T09:05:20;2.78;;;0.75;;
37787;SDS011;23627;53.302;-6.362;2024-03-25T09:07:48;2.67;;;0.60;;
37787;SDS011;23627;53.302;-6.362;2024-03-25T09:12:52;2.00;;;0.38;;
37787;SDS011;23627;53.302;-6.362;2024-03-25T09:15:18;2.80;;;0.45;;
37787;SDS011;23627;53.302;-6.362;2024-03-25T09:17:44;2.45;;;0.40;;
37787;SDS011;23627;53.302;-6.362;2024-03-25T09:20:10;1.52;;;0.38;;
37787;SDS011;23627;53.302;-6.362;2024-03-25T09:22:44;2.67;;;0.50;;
37787;SDS011;23627;53.302;-6.362;2024-03-25T09:25:11;2.45;;;0.40;;
37787;SDS011;23627;53.302;-6.362;2024-03-25T09:27:36;1.98;;;0.45;;
37787;SDS011;23627;53.302;-6.362;2024-03-25T09:30:03;3.22;;;0.50;;
37787;SDS011;23627;53.302;-6.362;2024-03-25T09:32:29;1.25;;;0.38;;
37787;SDS011;23627;53.302;-6.362;2024-03-25T09:34:58;2.63;;;0.43;;
37787;SDS011;23627;53.302;-6.362;2024-03-25T09:37:29;1.75;;;0.40;;
37787;SDS011;23627;53.302;-6.362;2024-03-25T09:39:57;3.60;;;0.65;;
37787;SDS011;23627;53.302;-6.362;2024-03-25T09:42:27;3.78;;;0.60;;
37787;SDS011;23627;53.302;-6.362;2024-03-25T09:45:01;1.75;;;0.50;;
37787;SDS011;23627;53.302;-6.362;2024-03-25T09:47:28;3.10;;;0.50;;
37787;SDS011;23627;53.302;-6.362;2024-03-25T09:49:54;3.15;;;0.75;;
37787;SDS011;23627;53.302;-6.362;2024-03-25T09:52:20;2.50;;;0.50;;
37787;SDS011;23627;53.302;-6.362;2024-03-25T09:54:49;3.67;;;0.57;;
37787;SDS011;23627;53.302;-6.362;2024-03-25T09:57:18;2.75;;;0.75;;
37787;SDS011;23627;53.302;-6.362;2024-03-25T09:59:57;2.55;;;0.60;;
37787;SDS011;23627;53.302;-6.362;2024-03-25T10:02:23;4.55;;;0.60;;
37787;SDS011;23627;53.302;-6.362;2024-03-25T10:04:54;3.28;;;0.50;;
37787;SDS011;23627;53.302;-6.362;2024-03-25T10:07:24;3.58;;;0.70;;
37787;SDS011;23627;53.302;-6.362;2024-03-25T10:09:50;2.55;;;0.57;;
37787;SDS011;23627;53.302;-6.362;2024-03-25T10:12:17;3.60;;;0.50;;
37787;SDS011;23627;53.302;-6.362;2024-03-25T10:14:43;4.05;;;0.60;;
37787;SDS011;23627;53.302;-6.362;2024-03-25T10:17:13;2.65;;;0.75;;
37787;SDS011;23627;53.302;-6.362;2024-03-25T10:19:44;2.75;;;0.70;;
37787;SDS011;23627;53.302;-6.362;2024-03-25T10:22:10;1.88;;;0.50;;
37787;SDS011;23627;53.302;-6.362;2024-03-25T10:32:23;3.08;;;0.50;;
37787;SDS011;23627;53.302;-6.362;2024-03-25T10:34:49;2.15;;;0.47;;
37787;SDS011;23627;53.302;-6.362;2024-03-25T10:37:16;3.60;;;0.45;;
37787;SDS011;23627;53.302;-6.362;2024-03-25T10:39:48;2.95;;;0.40;;
37787;SDS011;23627;53.302;-6.362;2024-03-25T10:42:18;3.10;;;0.50;;
37787;SDS011;23627;53.302;-6.362;2024-03-25T10:44:44;2.83;;;0.45;;
37787;SDS011;23627;53.302;-6.362;2024-03-25T10:47:14;1.77;;;0.50;;
37787;SDS011;23627;53.302;-6.362;2024-03-25T10:49:56;2.88;;;0.50;;
37787;SDS011;23627;53.302;-6.362;2024-03-25T10:52:26;2.03;;;0.40;;
37787;SDS011;23627;53.302;-6.362;2024-03-25T10:54:54;2.92;;;0.40;;
37787;SDS011;23627;53.302;-6.362;2024-03-25T10:57:21;1.38;;;0.30;;
37787;SDS011;23627;53.302;-6.362;2024-03-25T10:59:48;1.50;;;0.40;;
37787;SDS011;23627;53.302;-6.362;2024-03-25T11:02:14;1.10;;;0.22;;
37787;SDS011;23627;53.302;-6.362;2024-03-25T11:04:42;2.08;;;0.30;;
37787;SDS011;23627;53.302;-6.362;2024-03-25T11:07:12;1.25;;;0.32;;
37787;SDS011;23627;53.302;-6.362;2024-03-25T11:09:39;1.50;;;0.20;;
37787;SDS011;23627;53.302;-6.362;2024-03-25T11:12:07;0.60;;;0.10;;
37787;SDS011;23627;53.302;-6.362;2024-03-25T11:14:35;1.23;;;0.20;;
37787;SDS011;23627;53.302;-6.362;2024-03-25T11:17:01;0.65;;;0.20;;
37787;SDS011;23627;53.302;-6.362;2024-03-25T11:19:30;1.75;;;0.20;;
37787;SDS011;23627;53.302;-6.362;2024-03-25T11:22:07;1.85;;;0.20;;
37787;SDS011;23627;53.302;-6.362;2024-03-25T11:24:34;0.50;;;0.20;;
37787;SDS011;23627;53.302;-6.362;2024-03-25T11:27:06;0.90;;;0.22;;
37787;SDS011;23627;53.302;-6.362;2024-03-25T11:29:33;1.15;;;0.20;;
37787;SDS011;23627;53.302;-6.362;2024-03-25T11:32:03;0.82;;;0.20;;
37787;SDS011;23627;53.302;-6.362;2024-03-25T11:34:30;0.65;;;0.25;;
37787;SDS011;23627;53.302;-6.362;2024-03-25T11:36:57;1.75;;;0.30;;
37787;SDS011;23627;53.302;-6.362;2024-03-25T11:39:26;1.40;;;0.40;;
37787;SDS011;23627;53.302;-6.362;2024-03-25T11:49:39;0.80;;;0.30;;
37787;SDS011;23627;53.302;-6.362;2024-03-25T11:54:42;0.82;;;0.38;;
37787;SDS011;23627;53.302;-6.362;2024-03-25T11:57:07;2.25;;;0.50;;
37787;SDS011;23627;53.302;-6.362;2024-03-25T11:59:36;1.30;;;0.30;;
37787;SDS011;23627;53.302;-6.362;2024-03-25T12:02:05;0.85;;;0.20;;
37787;SDS011;23627;53.302;-6.362;2024-03-25T12:04:32;1.10;;;0.28;;
37787;SDS011;23627;53.302;-6.362;2024-03-25T12:06:58;1.75;;;0.40;;
37787;SDS011;23627;53.302;-6.362;2024-03-25T12:09:24;0.60;;;0.30;;
37787;SDS011;23627;53.302;-6.362;2024-03-25T12:12:09;1.05;;;0.43;;
37787;SDS011;23627;53.302;-6.362;2024-03-25T12:14:34;0.73;;;0.40;;
37787;SDS011;23627;53.302;-6.362;2024-03-25T12:17:00;0.70;;;0.35;;
37787;SDS011;23627;53.302;-6.362;2024-03-25T12:19:27;1.13;;;0.22;;
37787;SDS011;23627;53.302;-6.362;2024-03-25T12:22:01;0.98;;;0.30;;
37787;SDS011;23627;53.302;-6.362;2024-03-25T12:24:28;1.15;;;0.20;;
37787;SDS011;23627;53.302;-6.362;2024-03-25T12:26:57;1.65;;;0.30;;
37787;SDS011;23627;53.302;-6.362;2024-03-25T12:29:23;1.25;;;0.40;;
37787;SDS011;23627;53.302;-6.362;2024-03-25T12:31:56;0.77;;;0.20;;
37787;SDS011;23627;53.302;-6.362;2024-03-25T12:36:50;1.67;;;0.30;;
37787;SDS011;23627;53.302;-6.362;2024-03-25T12:39:16;1.48;;;0.20;;
37787;SDS011;23627;53.302;-6.362;2024-03-25T12:41:51;1.00;;;0.40;;
37787;SDS011;23627;53.302;-6.362;2024-03-25T12:44:16;1.75;;;0.32;;
37787;SDS011;23627;53.302;-6.362;2024-03-25T12:51:53;1.42;;;0.35;;
37787;SDS011;23627;53.302;-6.362;2024-03-25T12:54:21;1.08;;;0.30;;
37787;SDS011;23627;53.302;-6.362;2024-03-25T12:56:54;2.08;;;0.40;;
37787;SDS011;23627;53.302;-6.362;2024-03-25T12:59:32;1.50;;;0.30;;
37787;SDS011;23627;53.302;-6.362;2024-03-25T13:02:00;1.98;;;0.25;;
37787;SDS011;23627;53.302;-6.362;2024-03-25T13:04:27;0.85;;;0.20;;
37787;SDS011;23627;53.302;-6.362;2024-03-25T13:09:43;1.60;;;0.40;;
37787;SDS011;23627;53.302;-6.362;2024-03-25T13:12:41;1.92;;;0.40;;
37787;SDS011;23627;53.302;-6.362;2024-03-25T13:15:07;1.52;;;0.20;;
37787;SDS011;23627;53.302;-6.362;2024-03-25T13:17:33;0.63;;;0.20;;
37787;SDS011;23627;53.302;-6.362;2024-03-25T13:19:59;0.70;;;0.17;;
37787;SDS011;23627;53.302;-6.362;2024-03-25T13:22:25;1.67;;;0.20;;
37787;SDS011;23627;53.302;-6.362;2024-03-25T13:24:53;0.90;;;0.20;;
37787;SDS011;23627;53.302;-6.362;2024-03-25T13:27:19;1.23;;;0.20;;
37787;SDS011;23627;53.302;-6.362;2024-03-25T13:29:47;0.80;;;0.20;;
37787;SDS011;23627;53.302;-6.362;2024-03-25T13:32:13;1.27;;;0.20;;
37787;SDS011;23627;53.302;-6.362;2024-03-25T13:34:42;1.80;;;0.30;;
37787;SDS011;23627;53.302;-6.362;2024-03-25T13:37:11;1.10;;;0.10;;
37787;SDS011;23627;53.302;-6.362;2024-03-25T13:39:37;1.10;;;0.20;;
37787;SDS011;23627;53.302;-6.362;2024-03-25T13:42:03;1.67;;;0.20;;
37787;SDS011;23627;53.302;-6.362;2024-03-25T13:44:30;1.85;;;0.32;;
37787;SDS011;23627;53.302;-6.362;2024-03-25T13:46:56;1.15;;;0.20;;
37787;SDS011;23627;53.302;-6.362;2024-03-25T13:49:21;1.65;;;0.32;;
37787;SDS011;23627;53.302;-6.362;2024-03-25T13:51:58;3.13;;;0.73;;
37787;SDS011;23627;53.302;-6.362;2024-03-25T13:54:24;1.48;;;0.35;;
37787;SDS011;23627;53.302;-6.362;2024-03-25T13:56:54;1.83;;;0.30;;
37787;SDS011;23627;53.302;-6.362;2024-03-25T13:59:20;2.65;;;0.40;;
37787;SDS011;23627;53.302;-6.362;2024-03-25T14:01:46;1.58;;;0.38;;
37787;SDS011;23627;53.302;-6.362;2024-03-25T14:04:12;1.00;;;0.28;;
37787;SDS011;23627;53.302;-6.362;2024-03-25T14:06:38;1.23;;;0.40;;
37787;SDS011;23627;53.302;-6.362;2024-03-25T14:09:05;2.40;;;0.43;;
37787;SDS011;23627;53.302;-6.362;2024-03-25T14:11:34;2.42;;;0.50;;
37787;SDS011;23627;53.302;-6.362;2024-03-25T14:14:02;3.30;;;0.63;;
37787;SDS011;23627;53.302;-6.362;2024-03-25T14:16:28;2.33;;;0.47;;
37787;SDS011;23627;53.302;-6.362;2024-03-25T14:18:54;5.18;;;0.70;;
37787;SDS011;23627;53.302;-6.362;2024-03-25T14:21:19;3.90;;;0.50;;
37787;SDS011;23627;53.302;-6.362;2024-03-25T14:23:45;4.82;;;0.60;;
37787;SDS011;23627;53.302;-6.362;2024-03-25T14:26:14;3.60;;;0.75;;
37787;SDS011;23627;53.302;-6.362;2024-03-25T14:28:40;2.45;;;1.10;;
37787;SDS011;23627;53.302;-6.362;2024-03-25T14:31:06;4.88;;;0.77;;
37787;SDS011;23627;53.302;-6.362;2024-03-25T14:33:32;3.47;;;0.80;;
37787;SDS011;23627;53.302;-6.362;2024-03-25T14:35:58;4.28;;;0.90;;
37787;SDS011;23627;53.302;-6.362;2024-03-25T14:38:24;5.07;;;0.93;;
37787;SDS011;23627;53.302;-6.362;2024-03-25T14:40:49;3.72;;;0.80;;
37787;SDS011;23627;53.302;-6.362;2024-03-25T14:43:15;5.20;;;1.17;;
37787;SDS011;23627;53.302;-6.362;2024-03-25T14:45:44;3.00;;;0.90;;
37787;SDS011;23627;53.302;-6.362;2024-03-25T14:51:32;2.63;;;0.60;;
37787;SDS011;23627;53.302;-6.362;2024-03-25T14:53:57;2.80;;;0.73;;
37787;SDS011;23627;53.302;-6.362;2024-03-25T14:56:23;2.45;;;0.65;;
37787;SDS011;23627;53.302;-6.362;2024-03-25T14:58:49;3.00;;;0.80;;
37787;SDS011;23627;53.302;-6.362;2024-03-25T15:01:15;4.03;;;0.90;;
37787;SDS011;23627;53.302;-6.362;2024-03-25T15:03:41;4.00;;;0.90;;
37787;SDS011;23627;53.302;-6.362;2024-03-25T15:06:07;2.90;;;1.00;;
37787;SDS011;23627;53.302;-6.362;2024-03-25T15:08:32;3.80;;;0.98;;
37787;SDS011;23627;53.302;-6.362;2024-03-25T15:10:58;2.88;;;0.85;;
37787;SDS011;23627;53.302;-6.362;2024-03-25T15:13:24;4.75;;;1.00;;
37787;SDS011;23627;53.302;-6.362;2024-03-25T15:15:50;5.10;;;1.10;;